Terminal Aerodrome Forecast
Issued by NWS

Home | Current Version | Previous Version | Text Only | Print | Product List | Glossary On
Versions: 1 2 3 4 5 6 7 8 9 10 11 12 13 14 15 16 17 18 19 20 21 22 23 24 25 26 27
000
FTUS46 KOTX 290521
TAFCOE
TAF
KCOE 290521Z 2906/3006 VRB03KT P6SM FEW100 FEW150
     FM291100 14006KT P6SM FEW200
     FM292100 21007KT P6SM FEW120 SCT200
      AMD LTD TO CLD AND VIS=

USA.gov is the U.S. government's official web portal to all federal, state and local government web resources and services.